createdAt,value
2019-02-18T00:02:45.339Z,31.68
2019-02-18T00:05:40.355Z,32.35
2019-02-18T00:08:35.124Z,31.85
2019-02-18T00:11:30.022Z,32.20
2019-02-18T00:14:24.718Z,32.05
2019-02-18T00:17:19.555Z,31.17
2019-02-18T00:20:14.732Z,31.05
2019-02-18T00:23:09.496Z,31.30
2019-02-18T00:26:04.489Z,32.63
2019-02-18T00:28:59.602Z,33.33
2019-02-18T00:31:54.196Z,34.08
2019-02-18T00:34:48.766Z,33.60
2019-02-18T00:37:43.303Z,33.70
2019-02-18T00:40:37.788Z,34.83
2019-02-18T00:43:32.499Z,34.13
2019-02-18T00:46:27.094Z,35.23
2019-02-18T00:49:21.630Z,35.17
2019-02-18T00:52:16.597Z,34.33
2019-02-18T00:55:11.357Z,34.23
2019-02-18T00:58:05.860Z,33.70
2019-02-18T01:01:00.486Z,33.78
2019-02-18T01:03:55.124Z,35.03
2019-02-18T01:06:50.050Z,35.75
2019-02-18T01:09:45.107Z,35.88
2019-02-18T01:12:39.733Z,34.85
2019-02-18T01:15:34.422Z,35.63
2019-02-18T01:18:29.055Z,33.73
2019-02-18T01:21:23.900Z,34.75
2019-02-18T01:24:19.034Z,33.98
2019-02-18T01:27:13.860Z,34.55
2019-02-18T01:30:09.673Z,34.90
2019-02-18T01:33:04.264Z,36.13
2019-02-18T01:35:58.802Z,37.00
2019-02-18T01:38:53.951Z,39.90
2019-02-18T01:41:48.818Z,38.90
2019-02-18T01:44:44.161Z,39.40
2019-02-18T01:47:38.864Z,41.45
2019-02-18T01:50:33.741Z,40.05
2019-02-18T01:53:28.668Z,40.95
2019-02-18T01:56:23.601Z,40.00
2019-02-18T01:59:18.025Z,44.45
2019-02-18T02:02:12.739Z,42.67
2019-02-18T02:05:07.536Z,45.05
2019-02-18T02:08:03.891Z,47.53
2019-02-18T02:10:58.426Z,48.35
2019-02-18T02:13:53.703Z,47.27
2019-02-18T02:16:48.167Z,50.35
2019-02-18T02:19:42.766Z,50.40
2019-02-18T02:22:37.596Z,49.85
2019-02-18T02:25:32.223Z,48.45
2019-02-18T02:28:28.867Z,44.05
2019-02-18T02:31:22.292Z,49.05
2019-02-18T02:34:16.882Z,50.40
2019-02-18T02:37:12.746Z,53.40
2019-02-18T02:40:07.431Z,46.25
2019-02-18T02:43:02.416Z,44.30
2019-02-18T02:45:57.498Z,45.92
2019-02-18T02:48:52.569Z,44.38
2019-02-18T02:51:47.709Z,42.08
2019-02-18T02:54:43.295Z,42.58
2019-02-18T02:57:37.920Z,41.37
2019-02-18T03:00:33.042Z,40.83
2019-02-18T03:03:28.543Z,40.15
2019-02-18T03:06:23.496Z,41.25
2019-02-18T03:09:18.073Z,37.53
2019-02-18T03:12:12.741Z,38.00
2019-02-18T03:15:08.047Z,37.33
2019-02-18T03:18:02.943Z,35.68
2019-02-18T03:20:58.474Z,34.15
2019-02-18T03:23:54.135Z,42.78
2019-02-18T03:26:49.143Z,33.33
2019-02-18T03:30:24.951Z,32.70
2019-02-18T03:33:22.233Z,36.58
2019-02-18T03:36:18.407Z,39.40
2019-02-18T03:39:13.642Z,32.30
2019-02-18T03:42:08.634Z,33.83
2019-02-18T03:45:03.603Z,31.50
2019-02-18T03:47:58.752Z,30.72
2019-02-18T03:50:53.947Z,35.80
2019-02-18T03:53:48.901Z,30.77
2019-02-18T03:56:44.301Z,30.23
2019-02-18T03:59:39.397Z,32.15
2019-02-18T04:02:38.130Z,28.92
2019-02-18T04:05:33.250Z,28.67
2019-02-18T04:08:28.722Z,27.07
2019-02-18T04:11:23.714Z,27.50
2019-02-18T04:14:18.746Z,27.52
2019-02-18T04:17:13.765Z,41.63
2019-02-18T04:20:08.555Z,31.37
2019-02-18T04:23:03.705Z,27.45
2019-02-18T04:26:00.271Z,26.10
2019-02-18T04:28:56.408Z,26.07
2019-02-18T04:31:51.365Z,25.75
2019-02-18T04:34:47.552Z,25.92
2019-02-18T04:37:43.743Z,25.92
2019-02-18T04:40:39.514Z,27.35
2019-02-18T04:43:34.534Z,26.00
2019-02-18T04:46:30.583Z,27.13
2019-02-18T04:49:26.204Z,30.15
2019-02-18T04:52:21.248Z,25.68
2019-02-18T04:55:16.741Z,27.58
2019-02-18T04:58:14.700Z,28.32
2019-02-18T05:01:12.996Z,25.30
2019-02-18T05:04:07.873Z,25.65
2019-02-18T05:07:03.190Z,25.70
2019-02-18T05:09:58.732Z,24.23
2019-02-18T05:12:53.521Z,22.00
2019-02-18T05:15:48.878Z,22.77
2019-02-18T05:18:44.118Z,25.05
2019-02-18T05:21:45.625Z,23.40
2019-02-18T05:25:02.852Z,23.52
2019-02-18T05:28:05.372Z,23.02
2019-02-18T05:31:04.834Z,23.22
2019-02-18T05:34:03.541Z,23.25
2019-02-18T05:37:01.454Z,81.00
2019-02-18T05:40:02.191Z,29.23
2019-02-18T05:43:04.081Z,25.10
2019-02-18T05:46:11.386Z,22.37
2019-02-18T05:49:12.741Z,29.00
2019-02-18T05:52:14.129Z,23.57
2019-02-18T05:55:09.038Z,22.02
2019-02-18T05:58:04.016Z,23.73
2019-02-18T06:00:59.517Z,20.17
2019-02-18T06:04:00.248Z,20.43
2019-02-18T06:06:56.720Z,20.25
2019-02-18T06:09:52.739Z,25.40
2019-02-18T06:12:57.013Z,28.20
2019-02-18T06:15:56.594Z,23.80
2019-02-18T06:18:51.796Z,23.55
2019-02-18T06:21:47.198Z,22.15
2019-02-18T06:24:43.065Z,17.48
2019-02-18T06:27:37.851Z,18.73
2019-02-18T06:30:32.957Z,21.05
2019-02-18T06:33:28.510Z,20.52
2019-02-18T06:36:27.147Z,19.27
2019-02-18T06:39:20.638Z,20.88
2019-02-18T06:42:18.980Z,24.67
2019-02-18T06:45:35.503Z,32.30
2019-02-18T06:48:36.271Z,21.62
2019-02-18T06:51:36.353Z,20.90
2019-02-18T06:54:32.018Z,18.35
2019-02-18T06:57:55.362Z,18.65
2019-02-18T07:00:58.251Z,17.40
2019-02-18T07:04:14.481Z,24.50
2019-02-18T07:07:16.697Z,14.05
2019-02-18T07:10:37.053Z,15.30
2019-02-18T07:13:35.507Z,15.65
2019-02-18T07:16:31.823Z,17.85
2019-02-18T07:19:27.495Z,18.20
2019-02-18T07:22:26.444Z,16.93
2019-02-18T07:25:21.843Z,16.00
2019-02-18T07:28:17.078Z,17.27
2019-02-18T07:31:12.656Z,16.65
2019-02-18T07:34:09.657Z,16.65
2019-02-18T07:37:04.797Z,21.02
2019-02-18T07:40:02.183Z,16.67
2019-02-18T07:42:57.367Z,16.70
2019-02-18T07:45:53.063Z,15.20
2019-02-18T07:48:52.963Z,15.88
2019-02-18T07:51:49.093Z,13.20
2019-02-18T07:54:46.556Z,13.60
2019-02-18T07:57:41.593Z,15.45
2019-02-18T08:00:37.120Z,15.90
2019-02-18T08:03:32.611Z,14.95
2019-02-18T08:06:28.033Z,14.98
2019-02-18T08:09:22.949Z,14.25
2019-02-18T08:12:17.988Z,14.25
2019-02-18T08:15:14.803Z,14.98
2019-02-18T08:18:10.711Z,16.35
2019-02-18T08:21:05.412Z,15.98
2019-02-18T08:24:33.670Z,14.93
2019-02-18T08:27:28.349Z,18.07
2019-02-18T08:30:25.895Z,15.83
2019-02-18T08:33:20.802Z,15.55
2019-02-18T08:36:15.801Z,15.78
2019-02-18T08:39:11.457Z,15.30
2019-02-18T08:42:07.129Z,16.15
2019-02-18T08:45:02.908Z,16.37
2019-02-18T08:47:57.889Z,14.85
2019-02-18T08:50:53.426Z,17.15
2019-02-18T08:53:48.854Z,16.23
2019-02-18T08:56:45.943Z,16.23
2019-02-18T08:59:39.357Z,16.85
2019-02-18T09:02:35.196Z,16.90
2019-02-18T09:05:30.395Z,16.52
2019-02-18T09:08:25.509Z,17.32
2019-02-18T09:11:20.287Z,16.97
2019-02-18T09:14:16.469Z,16.55
2019-02-18T09:17:11.663Z,16.57
2019-02-18T09:20:09.116Z,16.05
2019-02-18T09:23:14.829Z,16.10
2019-02-18T09:26:09.650Z,16.42
2019-02-18T09:29:04.579Z,16.40
2019-02-18T09:31:59.605Z,18.35
2019-02-18T09:35:01.565Z,20.52
2019-02-18T09:37:50.667Z,17.85
2019-02-18T09:40:50.497Z,18.77
2019-02-18T09:43:42.349Z,17.50
2019-02-18T09:46:40.251Z,19.12
2019-02-18T09:49:33.926Z,19.25
2019-02-18T09:52:30.599Z,20.05
2019-02-18T09:55:26.074Z,20.48
2019-02-18T09:58:21.322Z,19.65
2019-02-18T10:01:18.405Z,17.90
2019-02-18T10:04:16.943Z,18.65
2019-02-18T10:07:13.541Z,16.90
2019-02-18T10:10:09.513Z,17.75
2019-02-18T10:13:08.396Z,17.05
2019-02-18T10:16:09.316Z,17.05
2019-02-18T10:19:11.320Z,16.17
2019-02-18T10:22:08.244Z,15.75
2019-02-18T10:25:06.015Z,15.45
2019-02-18T10:28:02.916Z,16.57
2019-02-18T10:30:59.770Z,16.32
2019-02-18T10:33:58.542Z,16.67
2019-02-18T10:36:54.619Z,13.58
2019-02-18T10:39:50.312Z,10.45
2019-02-18T10:42:45.772Z,11.35
2019-02-18T10:45:40.759Z,10.50
2019-02-18T10:48:39.334Z,10.98
2019-02-18T10:51:35.609Z,10.75
2019-02-18T10:54:34.477Z,14.13
2019-02-18T10:57:33.014Z,12.23
2019-02-18T11:00:29.153Z,10.20
2019-02-18T11:03:24.779Z,10.53
2019-02-18T11:06:20.258Z,11.22
2019-02-18T11:09:15.796Z,10.63
2019-02-18T11:12:11.408Z,11.57
2019-02-18T11:15:07.684Z,11.68
2019-02-18T11:18:03.192Z,12.90
2019-02-18T11:21:00.650Z,12.33
2019-02-18T11:23:55.452Z,13.25
2019-02-18T11:26:50.843Z,12.82
2019-02-18T11:29:46.245Z,11.78
2019-02-18T11:32:42.049Z,14.03
2019-02-18T11:35:36.810Z,12.23
2019-02-18T11:38:31.941Z,13.53
2019-02-18T11:41:27.732Z,11.57
2019-02-18T11:44:28.257Z,13.65
2019-02-18T11:47:23.562Z,12.53
2019-02-18T11:50:19.301Z,13.90
2019-02-18T11:53:14.252Z,15.95
2019-02-18T11:56:09.687Z,14.00
2019-02-18T11:59:05.852Z,13.10
2019-02-18T12:02:00.948Z,13.75
2019-02-18T12:04:56.162Z,17.37
2019-02-18T12:07:51.603Z,18.52
2019-02-18T12:10:47.511Z,18.98
2019-02-18T12:14:00.483Z,20.80
2019-02-18T12:16:55.138Z,20.25
2019-02-18T12:19:50.569Z,24.20
2019-02-18T12:22:45.497Z,22.10
2019-02-18T12:25:40.385Z,23.10
2019-02-18T12:28:35.175Z,22.90
2019-02-18T12:31:31.011Z,23.77
2019-02-18T12:34:25.598Z,31.62
2019-02-18T12:37:20.632Z,24.47
2019-02-18T12:40:15.497Z,26.25
2019-02-18T12:43:10.462Z,27.15
2019-02-18T12:46:15.509Z,27.17
2019-02-18T12:49:02.708Z,27.10
2019-02-18T12:51:57.310Z,26.97
2019-02-18T12:54:53.597Z,24.95
2019-02-18T12:57:48.558Z,25.30
2019-02-18T13:00:43.838Z,25.02
2019-02-18T13:03:38.898Z,24.37
2019-02-18T13:06:33.540Z,25.55
2019-02-18T13:09:29.185Z,27.37
2019-02-18T13:12:29.826Z,29.42
2019-02-18T13:15:36.108Z,28.55
2019-02-18T13:18:24.714Z,28.45
2019-02-18T13:21:19.603Z,27.35
2019-02-18T13:24:14.488Z,28.87
2019-02-18T13:27:11.844Z,27.05
2019-02-18T13:30:07.184Z,25.88
2019-02-18T13:33:02.005Z,36.05
2019-02-18T13:35:56.855Z,37.67
2019-02-18T13:38:52.094Z,35.13
2019-02-18T13:41:47.280Z,29.00
2019-02-18T13:44:42.375Z,28.92
2019-02-18T13:47:38.114Z,35.40
2019-02-18T13:50:34.456Z,31.68
2019-02-18T13:53:29.323Z,32.38
2019-02-18T13:56:23.915Z,35.73
2019-02-18T13:59:29.840Z,37.67
2019-02-18T14:02:24.652Z,41.65
2019-02-18T14:05:19.321Z,41.13
2019-02-18T14:08:14.082Z,40.35
2019-02-18T14:11:09.553Z,40.83
2019-02-18T14:14:04.737Z,42.93
2019-02-18T14:16:59.833Z,41.92
2019-02-18T14:19:54.996Z,43.87
2019-02-18T14:22:51.795Z,41.23
2019-02-18T14:25:46.983Z,37.48
2019-02-18T14:28:42.024Z,38.45
2019-02-18T14:31:36.746Z,37.73
2019-02-18T14:34:31.664Z,36.93
2019-02-18T14:37:26.350Z,35.98
2019-02-18T14:40:22.270Z,34.65
2019-02-18T14:43:17.312Z,35.25
2019-02-18T14:46:12.296Z,33.28
2019-02-18T14:49:07.442Z,32.38
2019-02-18T14:52:02.620Z,33.00
2019-02-18T14:54:57.589Z,32.17
2019-02-18T14:57:53.772Z,33.38
2019-02-18T15:00:48.655Z,35.08
2019-02-18T15:03:43.292Z,35.43
2019-02-18T15:06:38.210Z,34.05
2019-02-18T15:09:32.877Z,35.10
2019-02-18T15:12:32.924Z,36.05
2019-02-18T15:15:22.900Z,34.60
2019-02-18T15:18:17.449Z,33.67
2019-02-18T15:21:12.089Z,45.83
2019-02-18T15:24:07.060Z,48.83
2019-02-18T15:27:01.962Z,50.60
2019-02-18T15:29:56.956Z,51.08
2019-02-18T15:32:51.527Z,47.35
2019-02-18T15:35:46.134Z,41.13
2019-02-18T15:38:41.100Z,38.92
2019-02-18T15:41:36.460Z,36.65
2019-02-18T15:44:31.580Z,34.03
2019-02-18T15:47:26.722Z,33.23
2019-02-18T15:50:21.442Z,32.50
2019-02-18T15:53:16.407Z,32.10
2019-02-18T15:56:11.528Z,32.25
2019-02-18T15:59:06.915Z,31.90
2019-02-18T16:02:01.555Z,31.95
2019-02-18T16:04:56.100Z,31.45
2019-02-18T16:07:51.320Z,31.20
2019-02-18T16:10:47.294Z,30.45
2019-02-18T16:13:41.939Z,30.85
2019-02-18T16:16:37.371Z,30.25
2019-02-18T16:19:31.946Z,30.10
2019-02-18T16:22:27.884Z,29.75
2019-02-18T16:25:24.119Z,29.70
2019-02-18T16:28:19.622Z,28.80
2019-02-18T16:31:14.601Z,27.95
2019-02-18T16:34:09.665Z,28.25
2019-02-18T16:37:05.197Z,27.37
2019-02-18T16:40:00.280Z,26.50
2019-02-18T16:42:59.331Z,27.20
2019-02-18T16:45:50.067Z,26.12
2019-02-18T16:48:45.216Z,26.35
2019-02-18T16:51:40.239Z,26.30
2019-02-18T16:54:35.116Z,25.12
2019-02-18T16:57:30.024Z,25.12
2019-02-18T17:00:29.850Z,25.12
2019-02-18T17:03:24.602Z,23.85
2019-02-18T17:06:19.847Z,24.30
2019-02-18T17:09:18.137Z,23.70
2019-02-18T17:12:12.914Z,23.57
2019-02-18T17:15:07.836Z,23.07
2019-02-18T17:18:02.640Z,23.55
2019-02-18T17:20:57.177Z,23.77
2019-02-18T17:23:52.178Z,22.00
2019-02-18T17:26:46.855Z,22.82
2019-02-18T17:29:41.347Z,22.95
2019-02-18T17:32:36.305Z,22.42
2019-02-18T17:35:31.322Z,22.30
2019-02-18T17:38:26.307Z,21.45
2019-02-18T17:41:21.292Z,23.57
2019-02-18T17:44:20.197Z,22.20
2019-02-18T17:47:12.197Z,22.27
2019-02-18T17:50:07.030Z,22.80
2019-02-18T17:53:01.862Z,23.20
2019-02-18T17:55:56.677Z,22.48
2019-02-18T17:58:51.567Z,22.20
2019-02-18T18:01:46.260Z,22.20
2019-02-18T18:04:41.189Z,23.95
2019-02-18T18:07:36.019Z,24.85
2019-02-18T18:10:31.296Z,25.75
2019-02-18T18:13:26.448Z,24.50
2019-02-18T18:16:21.497Z,25.17
2019-02-18T18:19:16.285Z,25.00
2019-02-18T18:22:11.705Z,25.72
2019-02-18T18:25:06.572Z,26.05
2019-02-18T18:28:01.561Z,25.43
2019-02-18T18:30:56.141Z,24.67
2019-02-18T18:33:51.177Z,25.20
2019-02-18T18:36:46.372Z,26.45
2019-02-18T18:39:41.620Z,28.42
2019-02-18T18:42:36.658Z,27.32
2019-02-18T18:45:31.827Z,25.45
2019-02-18T18:48:27.049Z,25.25
2019-02-18T18:51:21.766Z,25.20
2019-02-18T18:54:16.895Z,25.10
2019-02-18T18:57:11.543Z,25.52
2019-02-18T19:00:06.280Z,26.02
2019-02-18T19:03:00.802Z,25.60
2019-02-18T19:05:55.574Z,25.77
2019-02-18T19:08:50.407Z,26.52
2019-02-18T19:11:47.075Z,26.27
2019-02-18T19:14:40.463Z,27.52
2019-02-18T19:17:35.243Z,26.07
2019-02-18T19:20:29.874Z,27.52
2019-02-18T19:23:25.038Z,30.35
2019-02-18T19:26:19.619Z,28.17
2019-02-18T19:29:15.742Z,27.65
2019-02-18T19:32:09.776Z,27.62
2019-02-18T19:35:04.394Z,28.23
2019-02-18T19:38:00.317Z,28.73
2019-02-18T19:40:55.026Z,28.62
2019-02-18T19:43:50.427Z,28.35
2019-02-18T19:46:44.982Z,28.98
2019-02-18T19:49:39.766Z,31.12
2019-02-18T19:52:34.737Z,29.63
2019-02-18T19:55:29.615Z,28.50
2019-02-18T19:58:24.535Z,28.10
2019-02-18T20:01:18.954Z,28.50
2019-02-18T20:04:13.458Z,28.05
2019-02-18T20:07:08.615Z,29.27
2019-02-18T20:10:03.755Z,30.97
2019-02-18T20:12:58.372Z,32.42
2019-02-18T20:15:52.974Z,31.97
2019-02-18T20:18:47.732Z,30.32
2019-02-18T20:21:43.347Z,29.63
2019-02-18T20:24:37.839Z,28.83
2019-02-18T20:27:32.735Z,30.00
2019-02-18T20:30:27.828Z,28.80
2019-02-18T20:33:22.371Z,29.63
2019-02-18T20:36:17.530Z,29.32
2019-02-18T20:39:12.873Z,28.85
2019-02-18T20:42:07.799Z,28.45
2019-02-18T20:45:02.427Z,29.50
2019-02-18T20:47:58.063Z,29.20
2019-02-18T20:50:52.711Z,29.30
2019-02-18T20:53:47.663Z,30.68
2019-02-18T20:56:42.855Z,30.12
2019-02-18T20:59:37.808Z,30.32
2019-02-18T21:02:32.586Z,28.50
2019-02-18T21:05:27.568Z,28.38
2019-02-18T21:08:22.616Z,28.02
2019-02-18T21:11:17.192Z,28.67
2019-02-18T21:14:16.120Z,28.83
2019-02-18T21:17:06.671Z,30.45
2019-02-18T21:20:01.583Z,30.92
2019-02-18T21:22:56.879Z,29.77
2019-02-18T21:25:51.512Z,30.20
2019-02-18T21:28:46.493Z,28.98
2019-02-18T21:31:41.157Z,28.90
2019-02-18T21:34:35.709Z,28.23
2019-02-18T21:37:30.881Z,28.62
2019-02-18T21:40:26.280Z,28.35
2019-02-18T21:43:20.945Z,27.35
2019-02-18T21:46:16.002Z,25.92
2019-02-18T21:49:10.618Z,28.70
2019-02-18T21:52:05.252Z,28.90
2019-02-18T21:55:00.072Z,30.17
2019-02-18T21:57:55.098Z,36.05
2019-02-18T22:00:49.924Z,35.25
2019-02-18T22:03:44.495Z,33.90
2019-02-18T22:06:39.107Z,33.28
2019-02-18T22:09:33.818Z,34.53
2019-02-18T22:12:28.626Z,44.38
2019-02-18T22:15:23.606Z,53.52
2019-02-18T22:18:18.013Z,51.20
2019-02-18T22:21:12.915Z,52.25
2019-02-18T22:24:08.427Z,59.48
2019-02-18T22:27:03.436Z,60.08
2019-02-18T22:29:58.218Z,61.95
2019-02-18T22:32:52.686Z,62.38
2019-02-18T22:35:47.357Z,62.98
2019-02-18T22:38:42.650Z,65.00
2019-02-18T22:41:37.423Z,65.30
2019-02-18T22:44:32.255Z,63.98
2019-02-18T22:47:27.541Z,63.50
2019-02-18T22:50:22.233Z,62.13
2019-02-18T22:53:17.151Z,64.17
2019-02-18T22:56:12.046Z,75.12
2019-02-18T22:59:06.794Z,78.42
2019-02-18T23:02:01.771Z,83.07
2019-02-18T23:04:56.355Z,78.28
2019-02-18T23:07:51.444Z,71.87
2019-02-18T23:10:45.996Z,66.53
2019-02-18T23:13:40.645Z,66.65
2019-02-18T23:16:35.571Z,61.85
2019-02-18T23:19:30.703Z,58.48
2019-02-18T23:22:25.643Z,58.25
2019-02-18T23:25:21.917Z,58.38
2019-02-18T23:28:16.728Z,56.05
2019-02-18T23:31:11.490Z,60.30
2019-02-18T23:34:06.294Z,68.33
2019-02-18T23:37:02.866Z,70.62
2019-02-18T23:39:57.426Z,71.15
2019-02-18T23:42:52.238Z,73.35
2019-02-18T23:45:47.035Z,84.00
2019-02-18T23:48:41.960Z,91.95
2019-02-18T23:51:36.649Z,95.65
2019-02-18T23:54:31.282Z,100.58
2019-02-18T23:57:25.874Z,101.60
